Terminal Aerodrome Forecast
Issued by NWS

Home | Current Version | Previous Version | Graphics & Text | Print | Product List | Glossary On
Versions: 1 2 3 4 5 6 7 8 9 10 11 12 13 14 15
000
FTUS43 KGRB 160635 AAA
TAFRHI
TAF AMD
KRHI 160635Z 1607/1706 01004KT P6SM SCT025 BKN070
      TEMPO 1608/1610 -SHSN BKN025
     FM161000 35004KT P6SM -SHSN BKN015
     FM161700 34007KT P6SM -SHSN BKN023
     FM161900 33007KT P6SM BKN030
     FM162000 29005KT P6SM SCT050=

USA.gov is the U.S. government's official web portal to all federal, state and local government web resources and services.